Sachs Harbour Airport
CYSY : rendu visible

Aérodrome :











RETROUVEZ-NOUS SUR...

 
LOGIN :

S'inscrire | Disclaimer

   EN    FR    IT 

 









Légende :    VFR   VFR Marginal   IFR   IFR Intensif   IFR Très Intensif
Visi : 
Plafond : 
>= 8 km
>= 3000ft
5 à 8 km
1000 à 3000 ft
1500m à 5 km
500 à 1000 ft
800 à 1500m
200 à 500 ft
< 800m
< 200 ft
Symboles :   Orages  Brouillard  Fortes neiges  Fortes précipitations  Vent > 20 kt






- Altitude de l'aérodrome : 282 ft
- Code IATA : YSY


CYSY - Sachs Harbour

DERNIER METAR :
  • 210000Z 11025KT 1 1/2SM BLSN FEW130 BKN200 BKN220 M18/M21 A2976 RMK BLSN1AC3CI2CS1 CS TR 10 / SNW CVR / TRACE LOOSE / LAST STFD OBS/NEXT 211400Z SLP092

METARs EXPIRÉS :
  • 202341Z 11024G30KT 1 1/2SM BLSN SCT130 BKN200 BKN220 M18/M20 A2977 RMK AC4CI1CS1 CS TR SLP096
  • 202300Z 11022KT 10SM DRSN FEW006 SCT130 BKN140 M17/M20 A2980 RMK ST1AC2AS4 SLP105

Prévision TAF périmée.



MET'MAP, la Météo Aéronautique d'un coup d'oeil ! - Copyright ORBIFLY Décembre 2007 - Disclaimer

ORBIFLY MET'MAP TEAM :

Programmation & Développement : Alexandra Zaïnal
Conception & Développement : Baudouin d'Aumeries
Co-Programmation & Développement : Marc-Olivier Méhu
Soutien technique & logistique : Manuel Goepfert

Contact : metmap@orbifly.com




SOURCES & CREDITS :

   NOAA       Earth
Advisory